sensor_id;sensor_type;location;lat;lon;timestamp;P1;durP1;ratioP1;P2;durP2;ratioP2
35675;SDS011;21790;42.668;23.298;2023-02-21T00:01:37;22.08;;;8.68;;
35675;SDS011;21790;42.668;23.298;2023-02-21T00:04:21;19.08;;;9.13;;
35675;SDS011;21790;42.668;23.298;2023-02-21T00:07:05;20.27;;;8.68;;
35675;SDS011;21790;42.668;23.298;2023-02-21T00:09:49;18.67;;;10.10;;
35675;SDS011;21790;42.668;23.298;2023-02-21T00:12:33;15.32;;;7.97;;
35675;SDS011;21790;42.668;23.298;2023-02-21T00:15:17;13.05;;;7.53;;
35675;SDS011;21790;42.668;23.298;2023-02-21T00:18:01;16.17;;;8.07;;
35675;SDS011;21790;42.668;23.298;2023-02-21T00:20:45;17.67;;;7.10;;
35675;SDS011;21790;42.668;23.298;2023-02-21T00:23:32;17.90;;;7.57;;
35675;SDS011;21790;42.668;23.298;2023-02-21T00:26:19;15.52;;;7.05;;
35675;SDS011;21790;42.668;23.298;2023-02-21T00:29:04;22.35;;;7.60;;
35675;SDS011;21790;42.668;23.298;2023-02-21T00:31:48;12.35;;;6.78;;
35675;SDS011;21790;42.668;23.298;2023-02-21T00:34:32;20.17;;;8.75;;
35675;SDS011;21790;42.668;23.298;2023-02-21T00:37:16;12.85;;;7.25;;
35675;SDS011;21790;42.668;23.298;2023-02-21T00:40:00;19.63;;;7.07;;
35675;SDS011;21790;42.668;23.298;2023-02-21T00:42:44;18.17;;;7.85;;
35675;SDS011;21790;42.668;23.298;2023-02-21T00:45:28;12.85;;;6.72;;
35675;SDS011;21790;42.668;23.298;2023-02-21T00:48:12;15.75;;;6.78;;
35675;SDS011;21790;42.668;23.298;2023-02-21T00:50:56;16.58;;;6.32;;
35675;SDS011;21790;42.668;23.298;2023-02-21T00:53:40;13.77;;;6.55;;
35675;SDS011;21790;42.668;23.298;2023-02-21T00:56:24;13.85;;;6.00;;
35675;SDS011;21790;42.668;23.298;2023-02-21T00:59:07;13.48;;;6.53;;
35675;SDS011;21790;42.668;23.298;2023-02-21T01:01:51;10.75;;;5.88;;
35675;SDS011;21790;42.668;23.298;2023-02-21T01:04:35;18.90;;;6.25;;
35675;SDS011;21790;42.668;23.298;2023-02-21T01:07:19;13.93;;;6.32;;
35675;SDS011;21790;42.668;23.298;2023-02-21T01:10:03;17.67;;;7.32;;
35675;SDS011;21790;42.668;23.298;2023-02-21T01:12:47;12.90;;;6.10;;
35675;SDS011;21790;42.668;23.298;2023-02-21T01:15:31;14.07;;;5.65;;
35675;SDS011;21790;42.668;23.298;2023-02-21T01:18:15;13.52;;;5.85;;
35675;SDS011;21790;42.668;23.298;2023-02-21T01:20:58;13.73;;;5.85;;
35675;SDS011;21790;42.668;23.298;2023-02-21T01:23:42;13.80;;;5.65;;
35675;SDS011;21790;42.668;23.298;2023-02-21T01:26:26;13.07;;;5.32;;
35675;SDS011;21790;42.668;23.298;2023-02-21T01:29:10;7.50;;;4.90;;
35675;SDS011;21790;42.668;23.298;2023-02-21T01:31:54;11.55;;;5.18;;
35675;SDS011;21790;42.668;23.298;2023-02-21T01:34:38;12.27;;;5.22;;
35675;SDS011;21790;42.668;23.298;2023-02-21T01:37:22;14.52;;;5.65;;
35675;SDS011;21790;42.668;23.298;2023-02-21T01:40:06;11.80;;;5.85;;
35675;SDS011;21790;42.668;23.298;2023-02-21T01:42:50;14.63;;;5.53;;
35675;SDS011;21790;42.668;23.298;2023-02-21T01:45:42;16.42;;;5.90;;
35675;SDS011;21790;42.668;23.298;2023-02-21T01:48:36;14.00;;;5.68;;
35675;SDS011;21790;42.668;23.298;2023-02-21T01:51:22;10.15;;;5.55;;
35675;SDS011;21790;42.668;23.298;2023-02-21T01:54:09;8.65;;;4.57;;
35675;SDS011;21790;42.668;23.298;2023-02-21T01:56:55;9.77;;;4.93;;
35675;SDS011;21790;42.668;23.298;2023-02-21T01:59:42;9.07;;;4.97;;
35675;SDS011;21790;42.668;23.298;2023-02-21T02:02:34;10.65;;;4.80;;
35675;SDS011;21790;42.668;23.298;2023-02-21T02:05:23;12.23;;;5.63;;
35675;SDS011;21790;42.668;23.298;2023-02-21T02:08:09;12.48;;;5.68;;
35675;SDS011;21790;42.668;23.298;2023-02-21T02:11:05;9.77;;;4.53;;
35675;SDS011;21790;42.668;23.298;2023-02-21T02:19:54;9.68;;;4.88;;
35675;SDS011;21790;42.668;23.298;2023-02-21T02:31:21;11.75;;;5.35;;
35675;SDS011;21790;42.668;23.298;2023-02-21T02:36:26;9.57;;;5.22;;
35675;SDS011;21790;42.668;23.298;2023-02-21T02:41:42;8.18;;;4.82;;
35675;SDS011;21790;42.668;23.298;2023-02-21T02:44:31;9.40;;;4.50;;
35675;SDS011;21790;42.668;23.298;2023-02-21T02:47:03;14.18;;;5.20;;
35675;SDS011;21790;42.668;23.298;2023-02-21T02:49:31;8.70;;;4.43;;
35675;SDS011;21790;42.668;23.298;2023-02-21T02:52:04;11.30;;;4.85;;
35675;SDS011;21790;42.668;23.298;2023-02-21T02:54:31;9.73;;;4.57;;
35675;SDS011;21790;42.668;23.298;2023-02-21T02:56:56;9.45;;;4.90;;
35675;SDS011;21790;42.668;23.298;2023-02-21T02:59:24;7.95;;;4.68;;
35675;SDS011;21790;42.668;23.298;2023-02-21T03:15:26;9.93;;;4.65;;
35675;SDS011;21790;42.668;23.298;2023-02-21T03:20:53;8.70;;;4.75;;
35675;SDS011;21790;42.668;23.298;2023-02-21T03:23:22;8.85;;;4.35;;
35675;SDS011;21790;42.668;23.298;2023-02-21T03:25:51;9.18;;;4.15;;
35675;SDS011;21790;42.668;23.298;2023-02-21T03:28:20;8.63;;;4.95;;
35675;SDS011;21790;42.668;23.298;2023-02-21T03:30:48;9.60;;;4.53;;
35675;SDS011;21790;42.668;23.298;2023-02-21T03:33:17;11.20;;;4.35;;
35675;SDS011;21790;42.668;23.298;2023-02-21T03:35:43;6.93;;;3.67;;
35675;SDS011;21790;42.668;23.298;2023-02-21T03:38:09;13.43;;;4.25;;
35675;SDS011;21790;42.668;23.298;2023-02-21T03:40:35;6.38;;;3.67;;
35675;SDS011;21790;42.668;23.298;2023-02-21T03:43:02;9.50;;;3.90;;
35675;SDS011;21790;42.668;23.298;2023-02-21T03:45:31;10.35;;;4.40;;
35675;SDS011;21790;42.668;23.298;2023-02-21T03:47:57;6.63;;;3.58;;
35675;SDS011;21790;42.668;23.298;2023-02-21T03:50:23;6.40;;;3.63;;
35675;SDS011;21790;42.668;23.298;2023-02-21T03:52:48;8.65;;;4.55;;
35675;SDS011;21790;42.668;23.298;2023-02-21T03:55:14;7.90;;;3.63;;
35675;SDS011;21790;42.668;23.298;2023-02-21T03:57:40;7.75;;;3.78;;
35675;SDS011;21790;42.668;23.298;2023-02-21T04:00:06;9.15;;;3.85;;
35675;SDS011;21790;42.668;23.298;2023-02-21T04:02:32;9.65;;;3.47;;
35675;SDS011;21790;42.668;23.298;2023-02-21T04:04:57;10.57;;;3.55;;
35675;SDS011;21790;42.668;23.298;2023-02-21T04:07:24;8.88;;;3.83;;
35675;SDS011;21790;42.668;23.298;2023-02-21T04:09:49;9.90;;;3.70;;
35675;SDS011;21790;42.668;23.298;2023-02-21T04:12:14;6.05;;;3.33;;
35675;SDS011;21790;42.668;23.298;2023-02-21T04:14:40;7.28;;;3.47;;
35675;SDS011;21790;42.668;23.298;2023-02-21T04:17:06;8.55;;;4.05;;
35675;SDS011;21790;42.668;23.298;2023-02-21T04:19:31;5.65;;;3.60;;
35675;SDS011;21790;42.668;23.298;2023-02-21T04:21:57;5.45;;;3.00;;
35675;SDS011;21790;42.668;23.298;2023-02-21T04:24:22;7.90;;;3.83;;
35675;SDS011;21790;42.668;23.298;2023-02-21T04:26:48;8.05;;;3.60;;
35675;SDS011;21790;42.668;23.298;2023-02-21T04:29:13;9.15;;;4.20;;
35675;SDS011;21790;42.668;23.298;2023-02-21T04:31:39;5.88;;;3.45;;
35675;SDS011;21790;42.668;23.298;2023-02-21T04:34:04;8.75;;;3.35;;
35675;SDS011;21790;42.668;23.298;2023-02-21T04:36:30;9.38;;;3.20;;
35675;SDS011;21790;42.668;23.298;2023-02-21T04:38:56;8.52;;;3.90;;
35675;SDS011;21790;42.668;23.298;2023-02-21T04:41:21;6.93;;;3.38;;
35675;SDS011;21790;42.668;23.298;2023-02-21T04:43:47;8.43;;;3.55;;
35675;SDS011;21790;42.668;23.298;2023-02-21T04:46:13;9.45;;;3.72;;
35675;SDS011;21790;42.668;23.298;2023-02-21T04:48:41;7.85;;;3.47;;
35675;SDS011;21790;42.668;23.298;2023-02-21T04:51:17;9.10;;;4.55;;
35675;SDS011;21790;42.668;23.298;2023-02-21T04:53:46;6.18;;;3.42;;
35675;SDS011;21790;42.668;23.298;2023-02-21T04:56:12;8.68;;;4.30;;
35675;SDS011;21790;42.668;23.298;2023-02-21T04:58:38;8.93;;;4.00;;
35675;SDS011;21790;42.668;23.298;2023-02-21T05:01:09;12.05;;;4.13;;
35675;SDS011;21790;42.668;23.298;2023-02-21T05:03:39;15.02;;;5.32;;
35675;SDS011;21790;42.668;23.298;2023-02-21T05:06:04;9.95;;;4.50;;
35675;SDS011;21790;42.668;23.298;2023-02-21T05:08:30;7.00;;;4.45;;
35675;SDS011;21790;42.668;23.298;2023-02-21T05:10:55;16.55;;;4.68;;
35675;SDS011;21790;42.668;23.298;2023-02-21T05:13:21;10.43;;;4.28;;
35675;SDS011;21790;42.668;23.298;2023-02-21T05:15:47;11.68;;;4.43;;
35675;SDS011;21790;42.668;23.298;2023-02-21T05:18:13;13.23;;;5.15;;
35675;SDS011;21790;42.668;23.298;2023-02-21T05:20:46;9.88;;;4.13;;
35675;SDS011;21790;42.668;23.298;2023-02-21T05:23:15;7.93;;;4.10;;
35675;SDS011;21790;42.668;23.298;2023-02-21T05:25:43;10.73;;;3.60;;
35675;SDS011;21790;42.668;23.298;2023-02-21T05:28:09;15.35;;;4.57;;
35675;SDS011;21790;42.668;23.298;2023-02-21T05:30:34;10.82;;;3.75;;
35675;SDS011;21790;42.668;23.298;2023-02-21T05:33:00;8.88;;;4.63;;
35675;SDS011;21790;42.668;23.298;2023-02-21T05:35:26;12.13;;;4.82;;
35675;SDS011;21790;42.668;23.298;2023-02-21T05:37:51;19.02;;;4.22;;
35675;SDS011;21790;42.668;23.298;2023-02-21T05:40:17;17.55;;;5.68;;
35675;SDS011;21790;42.668;23.298;2023-02-21T05:42:42;10.63;;;4.30;;
35675;SDS011;21790;42.668;23.298;2023-02-21T05:45:09;7.25;;;4.68;;
35675;SDS011;21790;42.668;23.298;2023-02-21T05:47:35;21.30;;;5.00;;
35675;SDS011;21790;42.668;23.298;2023-02-21T05:50:00;7.07;;;4.30;;
35675;SDS011;21790;42.668;23.298;2023-02-21T05:52:26;13.20;;;4.82;;
35675;SDS011;21790;42.668;23.298;2023-02-21T05:54:52;13.98;;;4.70;;
35675;SDS011;21790;42.668;23.298;2023-02-21T05:57:18;12.80;;;5.20;;
35675;SDS011;21790;42.668;23.298;2023-02-21T05:59:44;15.63;;;4.78;;
35675;SDS011;21790;42.668;23.298;2023-02-21T06:02:12;16.65;;;5.65;;
35675;SDS011;21790;42.668;23.298;2023-02-21T06:04:38;13.68;;;4.47;;
35675;SDS011;21790;42.668;23.298;2023-02-21T06:07:05;12.02;;;4.68;;
35675;SDS011;21790;42.668;23.298;2023-02-21T06:09:31;12.48;;;4.57;;
35675;SDS011;21790;42.668;23.298;2023-02-21T06:11:57;9.77;;;4.18;;
35675;SDS011;21790;42.668;23.298;2023-02-21T06:14:23;10.00;;;5.00;;
35675;SDS011;21790;42.668;23.298;2023-02-21T06:16:49;10.63;;;4.15;;
35675;SDS011;21790;42.668;23.298;2023-02-21T06:19:15;16.83;;;5.35;;
35675;SDS011;21790;42.668;23.298;2023-02-21T06:21:42;18.20;;;5.55;;
35675;SDS011;21790;42.668;23.298;2023-02-21T06:24:09;18.27;;;5.63;;
35675;SDS011;21790;42.668;23.298;2023-02-21T06:26:36;20.13;;;5.78;;
35675;SDS011;21790;42.668;23.298;2023-02-21T06:29:02;14.40;;;4.55;;
35675;SDS011;21790;42.668;23.298;2023-02-21T06:31:29;9.52;;;4.18;;
35675;SDS011;21790;42.668;23.298;2023-02-21T06:33:54;13.48;;;5.30;;
35675;SDS011;21790;42.668;23.298;2023-02-21T06:36:21;13.40;;;4.85;;
35675;SDS011;21790;42.668;23.298;2023-02-21T06:38:49;13.90;;;5.03;;
35675;SDS011;21790;42.668;23.298;2023-02-21T06:41:20;18.80;;;5.43;;
35675;SDS011;21790;42.668;23.298;2023-02-21T06:46:14;13.00;;;5.28;;
35675;SDS011;21790;42.668;23.298;2023-02-21T06:48:50;16.10;;;6.40;;
35675;SDS011;21790;42.668;23.298;2023-02-21T06:51:16;17.15;;;5.35;;
35675;SDS011;21790;42.668;23.298;2023-02-21T06:53:43;20.77;;;5.70;;
35675;SDS011;21790;42.668;23.298;2023-02-21T06:56:09;14.60;;;5.40;;
35675;SDS011;21790;42.668;23.298;2023-02-21T06:58:35;18.33;;;6.68;;
35675;SDS011;21790;42.668;23.298;2023-02-21T07:01:00;21.88;;;6.43;;
35675;SDS011;21790;42.668;23.298;2023-02-21T07:03:26;16.10;;;5.78;;
35675;SDS011;21790;42.668;23.298;2023-02-21T07:05:52;26.05;;;6.30;;
35675;SDS011;21790;42.668;23.298;2023-02-21T07:08:18;18.30;;;6.68;;
35675;SDS011;21790;42.668;23.298;2023-02-21T07:10:43;16.60;;;6.30;;
35675;SDS011;21790;42.668;23.298;2023-02-21T07:13:09;12.75;;;5.57;;
35675;SDS011;21790;42.668;23.298;2023-02-21T07:15:34;21.25;;;6.55;;
35675;SDS011;21790;42.668;23.298;2023-02-21T07:17:59;13.70;;;6.60;;
35675;SDS011;21790;42.668;23.298;2023-02-21T07:20:25;20.23;;;5.50;;
35675;SDS011;21790;42.668;23.298;2023-02-21T07:22:51;12.82;;;5.45;;
35675;SDS011;21790;42.668;23.298;2023-02-21T07:25:18;13.27;;;5.45;;
35675;SDS011;21790;42.668;23.298;2023-02-21T07:27:48;18.45;;;6.05;;
35675;SDS011;21790;42.668;23.298;2023-02-21T07:30:14;18.30;;;5.97;;
35675;SDS011;21790;42.668;23.298;2023-02-21T07:32:40;14.43;;;5.40;;
35675;SDS011;21790;42.668;23.298;2023-02-21T07:35:06;10.98;;;5.18;;
35675;SDS011;21790;42.668;23.298;2023-02-21T07:37:31;17.30;;;6.55;;
35675;SDS011;21790;42.668;23.298;2023-02-21T07:39:57;12.27;;;5.65;;
35675;SDS011;21790;42.668;23.298;2023-02-21T07:42:23;14.45;;;6.18;;
35675;SDS011;21790;42.668;23.298;2023-02-21T07:44:53;23.63;;;6.35;;
35675;SDS011;21790;42.668;23.298;2023-02-21T07:47:20;18.13;;;6.68;;
35675;SDS011;21790;42.668;23.298;2023-02-21T07:49:46;14.80;;;6.25;;
35675;SDS011;21790;42.668;23.298;2023-02-21T07:52:11;17.55;;;6.60;;
35675;SDS011;21790;42.668;23.298;2023-02-21T07:54:37;14.25;;;5.72;;
35675;SDS011;21790;42.668;23.298;2023-02-21T07:57:02;14.75;;;6.70;;
35675;SDS011;21790;42.668;23.298;2023-02-21T07:59:28;24.73;;;7.10;;
35675;SDS011;21790;42.668;23.298;2023-02-21T08:01:53;24.05;;;6.50;;
35675;SDS011;21790;42.668;23.298;2023-02-21T08:04:19;11.38;;;5.75;;
35675;SDS011;21790;42.668;23.298;2023-02-21T08:06:48;19.45;;;6.60;;
35675;SDS011;21790;42.668;23.298;2023-02-21T08:09:14;23.13;;;7.13;;
35675;SDS011;21790;42.668;23.298;2023-02-21T08:11:40;16.48;;;6.80;;
35675;SDS011;21790;42.668;23.298;2023-02-21T08:14:05;17.00;;;5.95;;
35675;SDS011;21790;42.668;23.298;2023-02-21T08:16:31;18.77;;;7.85;;
35675;SDS011;21790;42.668;23.298;2023-02-21T08:18:57;21.13;;;7.57;;
35675;SDS011;21790;42.668;23.298;2023-02-21T08:21:23;20.45;;;7.93;;
35675;SDS011;21790;42.668;23.298;2023-02-21T08:23:52;24.42;;;7.95;;
35675;SDS011;21790;42.668;23.298;2023-02-21T08:26:19;16.67;;;7.40;;
35675;SDS011;21790;42.668;23.298;2023-02-21T08:28:44;25.30;;;7.47;;
35675;SDS011;21790;42.668;23.298;2023-02-21T08:31:10;25.75;;;7.85;;
35675;SDS011;21790;42.668;23.298;2023-02-21T08:33:35;23.70;;;8.85;;
35675;SDS011;21790;42.668;23.298;2023-02-21T08:36:01;15.48;;;7.28;;
35675;SDS011;21790;42.668;23.298;2023-02-21T08:38:26;23.70;;;8.13;;
35675;SDS011;21790;42.668;23.298;2023-02-21T08:40:52;15.02;;;7.30;;
35675;SDS011;21790;42.668;23.298;2023-02-21T08:43:17;19.98;;;7.60;;
35675;SDS011;21790;42.668;23.298;2023-02-21T08:45:43;20.60;;;8.32;;
35675;SDS011;21790;42.668;23.298;2023-02-21T08:48:08;17.85;;;7.35;;
35675;SDS011;21790;42.668;23.298;2023-02-21T08:50:34;23.13;;;7.90;;
35675;SDS011;21790;42.668;23.298;2023-02-21T08:52:59;19.45;;;7.00;;
35675;SDS011;21790;42.668;23.298;2023-02-21T08:55:25;16.77;;;6.72;;
35675;SDS011;21790;42.668;23.298;2023-02-21T08:57:51;16.70;;;7.65;;
35675;SDS011;21790;42.668;23.298;2023-02-21T09:00:18;28.17;;;8.30;;
35675;SDS011;21790;42.668;23.298;2023-02-21T09:02:47;24.42;;;7.72;;
35675;SDS011;21790;42.668;23.298;2023-02-21T09:05:15;16.50;;;7.57;;
35675;SDS011;21790;42.668;23.298;2023-02-21T09:07:43;22.38;;;7.50;;
35675;SDS011;21790;42.668;23.298;2023-02-21T09:10:09;21.40;;;7.88;;
35675;SDS011;21790;42.668;23.298;2023-02-21T09:12:36;19.75;;;7.72;;
35675;SDS011;21790;42.668;23.298;2023-02-21T09:15:02;19.80;;;7.13;;
35675;SDS011;21790;42.668;23.298;2023-02-21T09:17:28;20.48;;;8.43;;
35675;SDS011;21790;42.668;23.298;2023-02-21T09:20:01;23.42;;;8.60;;
35675;SDS011;21790;42.668;23.298;2023-02-21T09:22:30;21.67;;;7.82;;
35675;SDS011;21790;42.668;23.298;2023-02-21T09:24:56;16.10;;;7.32;;
35675;SDS011;21790;42.668;23.298;2023-02-21T09:27:22;34.47;;;7.82;;
35675;SDS011;21790;42.668;23.298;2023-02-21T09:30:01;19.02;;;7.38;;
35675;SDS011;21790;42.668;23.298;2023-02-21T09:32:28;18.08;;;6.72;;
35675;SDS011;21790;42.668;23.298;2023-02-21T09:34:54;21.50;;;7.45;;
35675;SDS011;21790;42.668;23.298;2023-02-21T09:37:19;21.85;;;6.93;;
35675;SDS011;21790;42.668;23.298;2023-02-21T09:39:45;23.98;;;6.13;;
35675;SDS011;21790;42.668;23.298;2023-02-21T09:42:13;16.42;;;6.40;;
35675;SDS011;21790;42.668;23.298;2023-02-21T09:44:41;18.73;;;5.88;;
35675;SDS011;21790;42.668;23.298;2023-02-21T09:47:08;20.80;;;6.20;;
35675;SDS011;21790;42.668;23.298;2023-02-21T09:49:42;19.45;;;6.78;;
35675;SDS011;21790;42.668;23.298;2023-02-21T09:52:28;14.95;;;6.25;;
35675;SDS011;21790;42.668;23.298;2023-02-21T09:54:59;19.30;;;6.15;;
35675;SDS011;21790;42.668;23.298;2023-02-21T09:57:28;18.48;;;7.43;;
35675;SDS011;21790;42.668;23.298;2023-02-21T09:59:54;17.90;;;6.47;;
35675;SDS011;21790;42.668;23.298;2023-02-21T10:02:25;24.17;;;6.97;;
35675;SDS011;21790;42.668;23.298;2023-02-21T10:07:42;15.15;;;5.60;;
35675;SDS011;21790;42.668;23.298;2023-02-21T10:15:46;12.88;;;5.35;;
35675;SDS011;21790;42.668;23.298;2023-02-21T10:18:44;12.95;;;5.80;;
35675;SDS011;21790;42.668;23.298;2023-02-21T10:21:21;17.80;;;4.95;;
35675;SDS011;21790;42.668;23.298;2023-02-21T10:23:56;13.88;;;4.03;;
35675;SDS011;21790;42.668;23.298;2023-02-21T10:26:30;13.10;;;4.88;;
35675;SDS011;21790;42.668;23.298;2023-02-21T10:28:59;13.77;;;3.92;;
35675;SDS011;21790;42.668;23.298;2023-02-21T10:31:35;7.40;;;4.00;;
35675;SDS011;21790;42.668;23.298;2023-02-21T10:34:04;13.07;;;3.70;;
35675;SDS011;21790;42.668;23.298;2023-02-21T10:36:31;8.65;;;3.15;;
35675;SDS011;21790;42.668;23.298;2023-02-21T10:41:35;4.18;;;1.73;;
35675;SDS011;21790;42.668;23.298;2023-02-21T10:44:06;4.78;;;1.50;;
35675;SDS011;21790;42.668;23.298;2023-02-21T10:47:25;6.85;;;1.42;;
35675;SDS011;21790;42.668;23.298;2023-02-21T10:52:16;2.55;;;1.20;;
35675;SDS011;21790;42.668;23.298;2023-02-21T10:55:05;3.35;;;1.30;;
35675;SDS011;21790;42.668;23.298;2023-02-21T10:57:36;3.30;;;1.77;;
35675;SDS011;21790;42.668;23.298;2023-02-21T11:00:05;2.85;;;1.77;;
35675;SDS011;21790;42.668;23.298;2023-02-21T11:02:35;4.05;;;1.88;;
35675;SDS011;21790;42.668;23.298;2023-02-21T11:05:15;4.28;;;1.27;;
35675;SDS011;21790;42.668;23.298;2023-02-21T11:07:54;3.80;;;1.40;;
35675;SDS011;21790;42.668;23.298;2023-02-21T11:10:38;6.38;;;2.35;;
35675;SDS011;21790;42.668;23.298;2023-02-21T11:15:38;1.63;;;1.10;;
35675;SDS011;21790;42.668;23.298;2023-02-21T11:18:14;2.90;;;1.60;;
35675;SDS011;21790;42.668;23.298;2023-02-21T11:20:40;3.03;;;1.20;;
35675;SDS011;21790;42.668;23.298;2023-02-21T11:23:19;3.70;;;1.35;;
35675;SDS011;21790;42.668;23.298;2023-02-21T11:26:06;2.88;;;1.40;;
35675;SDS011;21790;42.668;23.298;2023-02-21T11:28:37;7.53;;;1.40;;
35675;SDS011;21790;42.668;23.298;2023-02-21T11:34:00;3.28;;;1.30;;
35675;SDS011;21790;42.668;23.298;2023-02-21T11:36:33;5.00;;;1.25;;
35675;SDS011;21790;42.668;23.298;2023-02-21T11:39:00;4.95;;;1.30;;
35675;SDS011;21790;42.668;23.298;2023-02-21T11:51:00;8.30;;;1.45;;
35675;SDS011;21790;42.668;23.298;2023-02-21T11:55:31;9.95;;;1.45;;
35675;SDS011;21790;42.668;23.298;2023-02-21T12:01:04;3.38;;;1.35;;
35675;SDS011;21790;42.668;23.298;2023-02-21T12:13:25;4.07;;;1.30;;
35675;SDS011;21790;42.668;23.298;2023-02-21T12:15:59;4.00;;;1.20;;
35675;SDS011;21790;42.668;23.298;2023-02-21T12:26:50;5.43;;;1.58;;
35675;SDS011;21790;42.668;23.298;2023-02-21T12:34:34;7.00;;;1.70;;
35675;SDS011;21790;42.668;23.298;2023-02-21T12:47:59;4.43;;;1.55;;
35675;SDS011;21790;42.668;23.298;2023-02-21T12:50:42;2.53;;;1.20;;
35675;SDS011;21790;42.668;23.298;2023-02-21T12:53:17;6.43;;;1.85;;
35675;SDS011;21790;42.668;23.298;2023-02-21T12:56:01;4.57;;;1.90;;
35675;SDS011;21790;42.668;23.298;2023-02-21T12:58:39;7.03;;;1.77;;
35675;SDS011;21790;42.668;23.298;2023-02-21T13:01:11;8.02;;;2.17;;
35675;SDS011;21790;42.668;23.298;2023-02-21T13:14:46;7.25;;;1.75;;
35675;SDS011;21790;42.668;23.298;2023-02-21T13:17:16;7.97;;;2.00;;
35675;SDS011;21790;42.668;23.298;2023-02-21T13:28:27;3.45;;;1.73;;
35675;SDS011;21790;42.668;23.298;2023-02-21T13:30:57;2.88;;;1.40;;
35675;SDS011;21790;42.668;23.298;2023-02-21T13:35:59;3.33;;;1.60;;
35675;SDS011;21790;42.668;23.298;2023-02-21T13:38:26;2.97;;;1.42;;
35675;SDS011;21790;42.668;23.298;2023-02-21T13:41:01;5.88;;;1.92;;
35675;SDS011;21790;42.668;23.298;2023-02-21T13:43:34;4.32;;;1.90;;
35675;SDS011;21790;42.668;23.298;2023-02-21T14:02:53;7.93;;;2.00;;
35675;SDS011;21790;42.668;23.298;2023-02-21T14:05:25;3.17;;;1.88;;
35675;SDS011;21790;42.668;23.298;2023-02-21T14:08:17;2.88;;;1.88;;
35675;SDS011;21790;42.668;23.298;2023-02-21T14:13:21;4.22;;;2.30;;
35675;SDS011;21790;42.668;23.298;2023-02-21T14:16:17;8.05;;;1.90;;
35675;SDS011;21790;42.668;23.298;2023-02-21T14:18:51;10.88;;;1.77;;
35675;SDS011;21790;42.668;23.298;2023-02-21T14:21:38;10.38;;;1.90;;
35675;SDS011;21790;42.668;23.298;2023-02-21T14:24:11;8.02;;;1.80;;
35675;SDS011;21790;42.668;23.298;2023-02-21T14:26:43;13.32;;;2.22;;
35675;SDS011;21790;42.668;23.298;2023-02-21T14:40:01;6.70;;;1.58;;
35675;SDS011;21790;42.668;23.298;2023-02-21T14:57:20;10.50;;;2.00;;
35675;SDS011;21790;42.668;23.298;2023-02-21T15:05:29;5.60;;;2.17;;
35675;SDS011;21790;42.668;23.298;2023-02-21T15:08:43;13.02;;;2.42;;
35675;SDS011;21790;42.668;23.298;2023-02-21T15:10:50;7.57;;;2.30;;
35675;SDS011;21790;42.668;23.298;2023-02-21T15:15:57;8.05;;;2.53;;
35675;SDS011;21790;42.668;23.298;2023-02-21T15:18:27;6.03;;;2.75;;
35675;SDS011;21790;42.668;23.298;2023-02-21T15:23:26;8.75;;;2.47;;
35675;SDS011;21790;42.668;23.298;2023-02-21T15:25:55;5.72;;;2.63;;
35675;SDS011;21790;42.668;23.298;2023-02-21T15:28:24;11.18;;;2.53;;
35675;SDS011;21790;42.668;23.298;2023-02-21T15:31:01;12.27;;;3.17;;
35675;SDS011;21790;42.668;23.298;2023-02-21T15:33:36;10.50;;;3.30;;
35675;SDS011;21790;42.668;23.298;2023-02-21T15:36:12;9.02;;;3.25;;
35675;SDS011;21790;42.668;23.298;2023-02-21T15:38:48;14.05;;;3.40;;
35675;SDS011;21790;42.668;23.298;2023-02-21T15:41:31;18.20;;;2.97;;
35675;SDS011;21790;42.668;23.298;2023-02-21T15:52:05;14.68;;;4.78;;
35675;SDS011;21790;42.668;23.298;2023-02-21T15:54:32;14.38;;;4.20;;
35675;SDS011;21790;42.668;23.298;2023-02-21T15:59:34;20.67;;;4.95;;
35675;SDS011;21790;42.668;23.298;2023-02-21T16:02:19;17.15;;;6.13;;
35675;SDS011;21790;42.668;23.298;2023-02-21T16:04:47;16.40;;;4.70;;
35675;SDS011;21790;42.668;23.298;2023-02-21T16:07:23;10.02;;;3.60;;
35675;SDS011;21790;42.668;23.298;2023-02-21T16:10:05;9.88;;;3.65;;
35675;SDS011;21790;42.668;23.298;2023-02-21T16:17:38;10.10;;;4.30;;
35675;SDS011;21790;42.668;23.298;2023-02-21T16:22:42;10.05;;;4.32;;
35675;SDS011;21790;42.668;23.298;2023-02-21T16:27:57;11.60;;;3.83;;
35675;SDS011;21790;42.668;23.298;2023-02-21T16:32:50;14.43;;;4.15;;
35675;SDS011;21790;42.668;23.298;2023-02-21T16:35:20;10.88;;;3.97;;
35675;SDS011;21790;42.668;23.298;2023-02-21T16:37:48;12.43;;;3.75;;
35675;SDS011;21790;42.668;23.298;2023-02-21T16:40:18;13.10;;;4.07;;
35675;SDS011;21790;42.668;23.298;2023-02-21T16:42:49;7.57;;;4.40;;
35675;SDS011;21790;42.668;23.298;2023-02-21T16:45:15;13.88;;;4.05;;
35675;SDS011;21790;42.668;23.298;2023-02-21T16:47:41;10.00;;;3.90;;
35675;SDS011;21790;42.668;23.298;2023-02-21T16:50:30;9.60;;;4.32;;
35675;SDS011;21790;42.668;23.298;2023-02-21T16:52:57;13.32;;;4.97;;
35675;SDS011;21790;42.668;23.298;2023-02-21T16:55:24;15.38;;;5.85;;
35675;SDS011;21790;42.668;23.298;2023-02-21T16:57:50;12.30;;;5.10;;
35675;SDS011;21790;42.668;23.298;2023-02-21T17:00:19;11.52;;;5.43;;
35675;SDS011;21790;42.668;23.298;2023-02-21T17:02:46;18.15;;;5.70;;
35675;SDS011;21790;42.668;23.298;2023-02-21T17:05:15;15.35;;;5.97;;
35675;SDS011;21790;42.668;23.298;2023-02-21T17:07:41;31.85;;;12.93;;
35675;SDS011;21790;42.668;23.298;2023-02-21T17:10:07;38.08;;;14.48;;
35675;SDS011;21790;42.668;23.298;2023-02-21T17:12:33;23.73;;;11.10;;
35675;SDS011;21790;42.668;23.298;2023-02-21T17:14:58;21.33;;;7.30;;
35675;SDS011;21790;42.668;23.298;2023-02-21T17:17:24;24.77;;;7.80;;
35675;SDS011;21790;42.668;23.298;2023-02-21T17:19:49;24.48;;;8.35;;
35675;SDS011;21790;42.668;23.298;2023-02-21T17:22:15;25.00;;;9.13;;
35675;SDS011;21790;42.668;23.298;2023-02-21T17:24:40;23.30;;;9.23;;
35675;SDS011;21790;42.668;23.298;2023-02-21T17:27:06;18.92;;;8.40;;
35675;SDS011;21790;42.668;23.298;2023-02-21T17:29:32;19.15;;;8.50;;
35675;SDS011;21790;42.668;23.298;2023-02-21T17:31:58;19.52;;;8.27;;
35675;SDS011;21790;42.668;23.298;2023-02-21T17:34:26;15.00;;;6.57;;
35675;SDS011;21790;42.668;23.298;2023-02-21T17:36:52;11.05;;;5.53;;
35675;SDS011;21790;42.668;23.298;2023-02-21T17:39:18;17.63;;;7.30;;
35675;SDS011;21790;42.668;23.298;2023-02-21T17:41:46;18.17;;;6.18;;
35675;SDS011;21790;42.668;23.298;2023-02-21T17:44:12;14.48;;;5.72;;
35675;SDS011;21790;42.668;23.298;2023-02-21T17:46:38;17.17;;;6.78;;
35675;SDS011;21790;42.668;23.298;2023-02-21T17:49:04;10.80;;;5.85;;
35675;SDS011;21790;42.668;23.298;2023-02-21T17:51:30;19.55;;;7.07;;
35675;SDS011;21790;42.668;23.298;2023-02-21T17:53:55;16.05;;;6.97;;
35675;SDS011;21790;42.668;23.298;2023-02-21T17:56:22;18.50;;;7.90;;
35675;SDS011;21790;42.668;23.298;2023-02-21T17:58:49;24.38;;;9.73;;
35675;SDS011;21790;42.668;23.298;2023-02-21T18:01:15;25.55;;;7.72;;
35675;SDS011;21790;42.668;23.298;2023-02-21T18:03:44;24.63;;;8.15;;
35675;SDS011;21790;42.668;23.298;2023-02-21T18:06:11;28.75;;;10.93;;
35675;SDS011;21790;42.668;23.298;2023-02-21T18:08:37;22.90;;;8.65;;
35675;SDS011;21790;42.668;23.298;2023-02-21T18:11:02;19.48;;;8.05;;
35675;SDS011;21790;42.668;23.298;2023-02-21T18:13:28;21.35;;;8.00;;
35675;SDS011;21790;42.668;23.298;2023-02-21T18:15:54;19.33;;;7.05;;
35675;SDS011;21790;42.668;23.298;2023-02-21T18:18:19;16.23;;;7.03;;